createdAt,value
2018-12-05T00:00:15.224Z,86.3
2018-12-05T00:00:41.380Z,86.39
2018-12-05T00:01:07.486Z,86.11
2018-12-05T00:01:33.594Z,86.49
2018-12-05T00:01:59.697Z,86.39
2018-12-05T00:02:25.799Z,86.3
2018-12-05T00:02:51.910Z,86.39
2018-12-05T00:03:18.020Z,86.11
2018-12-05T00:03:44.144Z,86.2
2018-12-05T00:04:10.286Z,86.68
2018-12-05T00:04:36.392Z,86.58
2018-12-05T00:05:02.502Z,86.49
2018-12-05T00:05:28.613Z,86.49
2018-12-05T00:05:54.721Z,86.49
2018-12-05T00:06:20.839Z,86.49
2018-12-05T00:06:46.970Z,86.58
2018-12-05T00:07:13.075Z,86.68
2018-12-05T00:07:39.271Z,86.68
2018-12-05T00:08:05.330Z,86.3
2018-12-05T00:08:31.476Z,86.39
2018-12-05T00:08:57.601Z,86.58
2018-12-05T00:09:23.716Z,86.49
2018-12-05T00:09:49.827Z,86.49
2018-12-05T00:10:15.943Z,86.58
2018-12-05T00:10:42.066Z,86.68
2018-12-05T00:11:08.205Z,86.58
2018-12-05T00:11:34.317Z,87.05
2018-12-05T00:12:00.429Z,87.15
2018-12-05T00:12:26.581Z,87.15
2018-12-05T00:12:52.637Z,87.15
2018-12-05T00:13:18.796Z,87.15
2018-12-05T00:13:44.891Z,86.87
2018-12-05T00:14:11.059Z,86.87
2018-12-05T00:14:37.167Z,87.05
2018-12-05T00:15:03.283Z,87.34
2018-12-05T00:15:29.432Z,86.96
2018-12-05T00:15:55.591Z,87.34
2018-12-05T00:16:21.700Z,87.53
2018-12-05T00:16:47.813Z,86.96
2018-12-05T00:17:13.951Z,87.24
2018-12-05T00:17:40.134Z,86.87
2018-12-05T00:18:06.277Z,87.15
2018-12-05T00:18:32.462Z,87.15
2018-12-05T00:18:58.585Z,86.77
2018-12-05T00:19:24.687Z,86.87
2018-12-05T00:19:50.857Z,87.34
2018-12-05T00:20:16.965Z,87.24
2018-12-05T00:20:43.067Z,87.43
2018-12-05T00:21:09.179Z,87.24
2018-12-05T00:21:35.312Z,87.34
2018-12-05T00:22:01.422Z,86.87
2018-12-05T00:22:27.575Z,87.53
2018-12-05T00:22:53.672Z,87.43
2018-12-05T00:23:19.787Z,87.34
2018-12-05T00:23:45.907Z,87.15
2018-12-05T00:24:12.035Z,87.15
2018-12-05T00:24:38.144Z,87.34
2018-12-05T00:25:04.256Z,87.53
2018-12-05T00:25:30.383Z,87.24
2018-12-05T00:25:56.499Z,87.34
2018-12-05T00:26:22.607Z,86.96
2018-12-05T00:26:48.719Z,87.05
2018-12-05T00:27:14.871Z,86.77
2018-12-05T00:27:40.981Z,87.24
2018-12-05T00:28:07.079Z,87.24
2018-12-05T00:28:33.185Z,87.15
2018-12-05T00:28:59.291Z,87.34
2018-12-05T00:29:25.416Z,87.24
2018-12-05T00:29:51.543Z,86.96
2018-12-05T00:30:17.759Z,87.15
2018-12-05T00:30:43.836Z,86.87
2018-12-05T00:31:09.984Z,87.24
2018-12-05T00:31:36.102Z,87.24
2018-12-05T00:32:02.222Z,86.87
2018-12-05T00:32:28.361Z,87.34
2018-12-05T00:32:54.473Z,87.34
2018-12-05T00:33:20.576Z,87.91
2018-12-05T00:33:46.683Z,87.34
2018-12-05T00:34:12.810Z,87.24
2018-12-05T00:34:38.932Z,87.34
2018-12-05T00:35:05.075Z,87.24
2018-12-05T00:35:31.144Z,87.15
2018-12-05T00:35:57.259Z,87.34
2018-12-05T00:36:23.369Z,87.24
2018-12-05T00:36:49.481Z,87.34
2018-12-05T00:37:15.593Z,87.15
2018-12-05T00:37:41.719Z,87.24
2018-12-05T00:38:07.853Z,87.72
2018-12-05T00:38:34.005Z,87.82
2018-12-05T00:39:00.143Z,87.72
2018-12-05T00:39:26.279Z,87.91
2018-12-05T00:39:53.376Z,87.53
2018-12-05T00:40:19.496Z,87.43
2018-12-05T00:40:45.617Z,87.53
2018-12-05T00:41:11.732Z,87.91
2018-12-05T00:41:37.849Z,88.1
2018-12-05T00:42:03.951Z,87.91
2018-12-05T00:42:30.064Z,87.72
2018-12-05T00:42:56.194Z,87.91
2018-12-05T00:43:22.300Z,88.1
2018-12-05T00:43:48.402Z,87.43
2018-12-05T00:44:14.519Z,87.43
2018-12-05T00:44:40.639Z,87.53
2018-12-05T00:45:06.773Z,87.53
2018-12-05T00:45:32.908Z,87.53
2018-12-05T00:45:59.078Z,87.34
2018-12-05T00:46:25.186Z,87.43
2018-12-05T00:46:51.298Z,87.72
2018-12-05T00:47:17.435Z,87.43
2018-12-05T00:47:43.538Z,87.43
2018-12-05T00:48:09.663Z,87.82
2018-12-05T00:48:35.757Z,87.62
2018-12-05T00:49:01.892Z,88.01
2018-12-05T00:49:27.998Z,88.01
2018-12-05T00:49:54.271Z,88.01
2018-12-05T00:50:20.418Z,88.01
2018-12-05T00:50:46.494Z,88.01
2018-12-05T00:51:12.604Z,87.91
2018-12-05T00:51:38.724Z,87.82
2018-12-05T00:52:04.836Z,88.1
2018-12-05T00:52:30.957Z,88.01
2018-12-05T00:52:57.100Z,87.72
2018-12-05T00:53:23.206Z,87.91
2018-12-05T00:53:49.322Z,87.72
2018-12-05T00:54:15.422Z,87.34
2018-12-05T00:54:41.551Z,87.53
2018-12-05T00:55:07.660Z,87.72
2018-12-05T00:55:33.769Z,87.53
2018-12-05T00:55:59.883Z,87.72
2018-12-05T00:56:25.996Z,87.53
2018-12-05T00:56:52.117Z,87.43
2018-12-05T00:57:18.221Z,87.15
2018-12-05T00:57:44.338Z,87.62
2018-12-05T00:58:10.468Z,87.34
2018-12-05T00:58:36.615Z,87.43
2018-12-05T00:59:02.715Z,87.53
2018-12-05T00:59:28.853Z,87.15
2018-12-05T00:59:54.995Z,87.43
2018-12-05T01:00:21.102Z,88.1
2018-12-05T01:00:47.207Z,88.1
2018-12-05T01:01:13.311Z,87.62
2018-12-05T01:01:39.453Z,87.62
2018-12-05T01:02:05.586Z,87.62
2018-12-05T01:02:31.696Z,87.43
2018-12-05T01:02:57.811Z,87.53
2018-12-05T01:03:23.916Z,87.72
2018-12-05T01:03:50.023Z,87.15
2018-12-05T01:04:16.128Z,87.53
2018-12-05T01:04:42.236Z,87.34
2018-12-05T01:05:08.360Z,87.34
2018-12-05T01:05:34.468Z,87.05
2018-12-05T01:06:00.571Z,87.24
2018-12-05T01:06:26.699Z,87.24
2018-12-05T01:06:52.796Z,87.34
2018-12-05T01:07:18.940Z,86.77
2018-12-05T01:07:45.064Z,86.77
2018-12-05T01:08:11.174Z,86.77
2018-12-05T01:08:37.287Z,87.05
2018-12-05T01:09:03.442Z,87.24
2018-12-05T01:09:29.542Z,87.34
2018-12-05T01:09:55.668Z,87.43
2018-12-05T01:10:21.785Z,86.96
2018-12-05T01:10:47.903Z,87.15
2018-12-05T01:11:14.012Z,86.87
2018-12-05T01:11:40.128Z,87.43
2018-12-05T01:12:06.242Z,87.24
2018-12-05T01:12:32.358Z,87.15
2018-12-05T01:12:58.463Z,87.34
2018-12-05T01:13:24.570Z,87.34
2018-12-05T01:13:50.700Z,87.24
2018-12-05T01:14:16.795Z,87.15
2018-12-05T01:14:42.907Z,86.87
2018-12-05T01:15:09.625Z,86.96
2018-12-05T01:15:35.769Z,86.96
2018-12-05T01:16:01.874Z,86.96
2018-12-05T01:16:27.980Z,87.05
2018-12-05T01:16:54.095Z,87.24
2018-12-05T01:17:20.237Z,87.15
2018-12-05T01:17:46.351Z,87.24
2018-12-05T01:18:12.481Z,87.43
2018-12-05T01:18:38.640Z,86.77
2018-12-05T01:19:04.742Z,86.68
2018-12-05T01:19:30.864Z,86.68
2018-12-05T01:19:56.963Z,86.3
2018-12-05T01:20:23.084Z,86.58
2018-12-05T01:20:49.178Z,86.58
2018-12-05T01:21:15.302Z,86.49
2018-12-05T01:21:41.412Z,86.39
2018-12-05T01:22:07.527Z,87.34
2018-12-05T01:22:33.687Z,87.24
2018-12-05T01:22:59.826Z,87.15
2018-12-05T01:23:25.931Z,86.77
2018-12-05T01:23:52.058Z,86.87
2018-12-05T01:24:18.169Z,87.05
2018-12-05T01:24:44.310Z,87.15
2018-12-05T01:25:10.420Z,87.24
2018-12-05T01:25:36.535Z,87.34
2018-12-05T01:26:02.689Z,87.15
2018-12-05T01:26:28.831Z,87.34
2018-12-05T01:26:54.940Z,87.15
2018-12-05T01:27:21.043Z,86.96
2018-12-05T01:27:47.146Z,87.15
2018-12-05T01:28:13.287Z,86.77
2018-12-05T01:28:39.397Z,87.05
2018-12-05T01:29:05.494Z,87.43
2018-12-05T01:29:31.597Z,87.72
2018-12-05T01:29:57.707Z,87.72
2018-12-05T01:30:23.823Z,87.62
2018-12-05T01:30:49.984Z,87.53
2018-12-05T01:31:16.088Z,87.43
2018-12-05T01:31:42.195Z,87.53
2018-12-05T01:32:08.301Z,87.53
2018-12-05T01:32:34.415Z,87.43
2018-12-05T01:33:00.526Z,87.72
2018-12-05T01:33:26.889Z,87.43
2018-12-05T01:33:53.039Z,87.34
2018-12-05T01:34:19.175Z,87.72
2018-12-05T01:34:45.272Z,87.82
2018-12-05T01:35:11.391Z,87.82
2018-12-05T01:35:37.491Z,87.05
2018-12-05T01:36:03.630Z,87.82
2018-12-05T01:36:29.754Z,87.72
2018-12-05T01:36:55.859Z,87.82
2018-12-05T01:37:21.978Z,87.82
2018-12-05T01:37:48.097Z,87.53
2018-12-05T01:38:14.205Z,87.05
2018-12-05T01:38:40.308Z,87.72
2018-12-05T01:39:06.419Z,87.72
2018-12-05T01:39:32.532Z,87.91
2018-12-05T01:39:58.664Z,87.05
2018-12-05T01:40:24.761Z,87.91
2018-12-05T01:40:50.900Z,87.72
2018-12-05T01:41:17.038Z,87.53
2018-12-05T01:41:43.193Z,87.43
2018-12-05T01:42:09.340Z,87.53
2018-12-05T01:42:35.454Z,87.43
2018-12-05T01:43:01.596Z,87.53
2018-12-05T01:43:27.709Z,87.72
2018-12-05T01:43:53.807Z,87.53
2018-12-05T01:44:19.920Z,87.34
2018-12-05T01:44:46.029Z,87.05
2018-12-05T01:45:12.134Z,87.53
2018-12-05T01:45:38.262Z,87.34
2018-12-05T01:46:04.372Z,87.34
2018-12-05T01:46:30.472Z,87.05
2018-12-05T01:46:56.580Z,86.96
2018-12-05T01:47:22.722Z,87.15
2018-12-05T01:47:48.839Z,87.05
2018-12-05T01:48:14.958Z,86.96
2018-12-05T01:48:41.063Z,87.53
2018-12-05T01:49:07.185Z,87.05
2018-12-05T01:49:33.292Z,87.24
2018-12-05T01:49:59.433Z,87.15
2018-12-05T01:50:25.538Z,87.34
2018-12-05T01:50:51.645Z,87.34
2018-12-05T01:51:17.743Z,87.53
2018-12-05T01:51:43.849Z,87.05
2018-12-05T01:52:09.959Z,87.82
2018-12-05T01:52:36.081Z,87.53
2018-12-05T01:53:02.202Z,87.53
2018-12-05T01:53:28.351Z,88.1
2018-12-05T01:53:54.469Z,87.91
2018-12-05T01:54:20.589Z,88.1
2018-12-05T01:54:46.701Z,87.72
2018-12-05T01:55:12.812Z,88.1
2018-12-05T01:55:38.901Z,87.43
2018-12-05T01:56:05.064Z,87.34
2018-12-05T01:56:31.164Z,87.43
2018-12-05T01:56:57.272Z,87.53
2018-12-05T01:57:23.384Z,87.53
2018-12-05T01:57:49.504Z,87.43
2018-12-05T01:58:15.618Z,87.72
2018-12-05T01:58:41.723Z,87.53
2018-12-05T01:59:07.845Z,87.82
2018-12-05T01:59:33.943Z,87.72
2018-12-05T02:00:00.104Z,87.82
2018-12-05T02:00:26.240Z,87.82
2018-12-05T02:00:52.336Z,87.91
2018-12-05T02:01:18.478Z,87.05
2018-12-05T02:01:44.642Z,87.53
2018-12-05T02:02:10.759Z,87.34
2018-12-05T02:02:36.916Z,87.24
2018-12-05T02:03:03.009Z,87.43
2018-12-05T02:03:29.151Z,87.15
2018-12-05T02:03:55.276Z,86.87
2018-12-05T02:04:21.387Z,87.24
2018-12-05T02:04:47.500Z,86.87
2018-12-05T02:05:13.651Z,87.15
2018-12-05T02:05:39.783Z,86.3
2018-12-05T02:06:05.937Z,86.49
2018-12-05T02:06:32.048Z,86.3
2018-12-05T02:06:58.167Z,86.49
2018-12-05T02:07:24.265Z,86.3
2018-12-05T02:07:50.392Z,86.77
2018-12-05T02:08:16.506Z,86.39
2018-12-05T02:08:42.619Z,86.58
2018-12-05T02:09:08.725Z,86.49
2018-12-05T02:09:34.839Z,86.58
2018-12-05T02:10:00.938Z,86.58
2018-12-05T02:10:27.037Z,86.49
2018-12-05T02:10:53.147Z,86.3
2018-12-05T02:11:19.293Z,86.58
2018-12-05T02:11:45.404Z,87.05
2018-12-05T02:12:11.515Z,87.05
2018-12-05T02:12:37.634Z,87.34
2018-12-05T02:13:03.761Z,87.15
2018-12-05T02:13:30.878Z,87.34
2018-12-05T02:13:56.982Z,87.34
2018-12-05T02:14:23.103Z,87.34
2018-12-05T02:14:49.221Z,87.34
2018-12-05T02:15:15.343Z,87.15
2018-12-05T02:15:41.443Z,87.43
2018-12-05T02:16:07.595Z,87.24
2018-12-05T02:16:33.712Z,86.87
2018-12-05T02:16:59.839Z,86.87
2018-12-05T02:17:25.974Z,87.34
2018-12-05T02:17:52.117Z,87.24
2018-12-05T02:18:18.229Z,87.43
2018-12-05T02:18:44.368Z,87.15
2018-12-05T02:19:10.481Z,87.72
2018-12-05T02:19:36.584Z,87.53
2018-12-05T02:20:02.692Z,87.43
2018-12-05T02:20:28.807Z,87.39
2018-12-05T02:20:54.917Z,87.96
2018-12-05T02:21:21.027Z,88.06
2018-12-05T02:21:47.168Z,88.53
2018-12-05T02:22:13.261Z,88.2
2018-12-05T02:22:39.370Z,88.76
2018-12-05T02:23:05.469Z,88.48
2018-12-05T02:23:31.589Z,88.76
2018-12-05T02:23:57.701Z,88.76
2018-12-05T02:24:23.816Z,88.39
2018-12-05T02:24:49.971Z,88.39
2018-12-05T02:25:16.077Z,88.29
2018-12-05T02:25:42.219Z,88.2
2018-12-05T02:26:08.372Z,88.2
2018-12-05T02:26:34.506Z,88.1
2018-12-05T02:27:00.664Z,88.1
2018-12-05T02:27:26.762Z,88.2
2018-12-05T02:27:52.910Z,88.29
2018-12-05T02:28:19.026Z,88.67
2018-12-05T02:28:45.123Z,87.62
2018-12-05T02:29:11.242Z,87.82
2018-12-05T02:29:37.356Z,87.82
2018-12-05T02:30:03.519Z,87.82
2018-12-05T02:30:29.685Z,88.29
2018-12-05T02:30:55.888Z,88.39
2018-12-05T02:31:21.988Z,88.29
2018-12-05T02:31:48.110Z,88.29
2018-12-05T02:32:14.216Z,88.29
2018-12-05T02:32:40.325Z,88.2
2018-12-05T02:33:06.482Z,88.2
2018-12-05T02:33:32.609Z,88.39
2018-12-05T02:33:58.694Z,88.48
2018-12-05T02:34:24.800Z,87.91
2018-12-05T02:34:50.912Z,87.91
2018-12-05T02:35:17.051Z,88.1
2018-12-05T02:35:43.189Z,87.91
2018-12-05T02:36:09.326Z,87.34
2018-12-05T02:36:35.470Z,87.43
2018-12-05T02:37:01.563Z,87.72
2018-12-05T02:37:27.703Z,87.82
2018-12-05T02:37:53.813Z,87.82
2018-12-05T02:38:19.922Z,87.72
2018-12-05T02:38:46.047Z,87.53
2018-12-05T02:39:12.169Z,87.62
2018-12-05T02:39:38.305Z,87.72
2018-12-05T02:40:04.490Z,87.53
2018-12-05T02:40:30.599Z,87.62
2018-12-05T02:40:56.734Z,87.53
2018-12-05T02:41:22.932Z,87.53
2018-12-05T02:41:49.027Z,87.91
2018-12-05T02:42:15.131Z,88.01
2018-12-05T02:42:41.262Z,88.2
2018-12-05T02:43:07.363Z,88.1
2018-12-05T02:43:33.491Z,87.91
2018-12-05T02:43:59.632Z,87.82
2018-12-05T02:44:25.765Z,87.68
2018-12-05T02:44:51.874Z,87.91
2018-12-05T02:45:18.392Z,88.1
2018-12-05T02:45:44.525Z,87.53
2018-12-05T02:46:10.691Z,88.1
2018-12-05T02:46:36.803Z,87.43
2018-12-05T02:47:02.940Z,87.53
2018-12-05T02:47:29.075Z,87.49
2018-12-05T02:47:55.234Z,87.3
2018-12-05T02:48:21.334Z,88.06
2018-12-05T02:48:47.504Z,88.15
2018-12-05T02:49:13.636Z,87.87
2018-12-05T02:49:39.743Z,87.68
2018-12-05T02:50:05.850Z,88.43
2018-12-05T02:50:31.990Z,88.24
2018-12-05T02:50:58.092Z,88.15
2018-12-05T02:51:24.197Z,88.15
2018-12-05T02:51:50.329Z,88.15
2018-12-05T02:52:16.459Z,88.43
2018-12-05T02:52:42.564Z,88.34
2018-12-05T02:53:08.696Z,88.62
2018-12-05T02:53:34.829Z,88.29
2018-12-05T02:54:00.956Z,88.24
2018-12-05T02:54:27.057Z,88.15
2018-12-05T02:54:53.156Z,88.24
2018-12-05T02:55:19.264Z,88.53
2018-12-05T02:55:45.403Z,88.06
2018-12-05T02:56:11.582Z,88.06
2018-12-05T02:56:37.692Z,88.15
2018-12-05T02:57:03.790Z,88.24
2018-12-05T02:57:29.925Z,88.62
2018-12-05T02:57:56.053Z,88.34
2018-12-05T02:58:22.159Z,88.34
2018-12-05T02:58:48.259Z,88.43
2018-12-05T02:59:14.391Z,88.34
2018-12-05T02:59:40.504Z,88.24
2018-12-05T03:00:06.609Z,88.53
2018-12-05T03:00:32.713Z,88.53
2018-12-05T03:00:58.820Z,88.24
2018-12-05T03:01:24.918Z,88.53
2018-12-05T03:01:51.021Z,88.15
2018-12-05T03:02:17.130Z,88.24
2018-12-05T03:02:43.240Z,88.24
2018-12-05T03:03:09.342Z,88.34
2018-12-05T03:03:35.447Z,88.53
2018-12-05T03:04:01.555Z,88.15
2018-12-05T03:04:27.665Z,88.34
2018-12-05T03:04:53.773Z,88.62
2018-12-05T03:05:19.924Z,88.06
2018-12-05T03:05:46.058Z,88.06
2018-12-05T03:06:12.195Z,88.15
2018-12-05T03:06:38.297Z,88.15
2018-12-05T03:07:04.424Z,87.58
2018-12-05T03:07:30.524Z,87.87
2018-12-05T03:07:56.663Z,87.96
2018-12-05T03:08:22.807Z,88.06
2018-12-05T03:08:48.934Z,87.96
2018-12-05T03:09:15.067Z,87.87
2018-12-05T03:09:41.244Z,87.39
2018-12-05T03:10:07.390Z,88.53
2018-12-05T03:10:33.523Z,87.87
2018-12-05T03:10:59.624Z,87.68
2018-12-05T03:11:25.735Z,87.68
2018-12-05T03:11:51.868Z,87.96
2018-12-05T03:12:17.974Z,87.96
2018-12-05T03:12:44.080Z,88.06
2018-12-05T03:13:10.211Z,88.06
2018-12-05T03:13:36.315Z,87.96
2018-12-05T03:14:02.419Z,87.87
2018-12-05T03:14:28.549Z,87.49
2018-12-05T03:14:54.680Z,87.39
2018-12-05T03:15:20.815Z,87.39
2018-12-05T03:15:46.951Z,87.49
2018-12-05T03:16:13.064Z,87.68
2018-12-05T03:16:39.217Z,88.06
2018-12-05T03:17:05.331Z,88.06
2018-12-05T03:17:31.438Z,87.96
2018-12-05T03:17:57.541Z,87.77
2018-12-05T03:18:23.671Z,88.06
2018-12-05T03:18:49.776Z,88.06
2018-12-05T03:19:15.881Z,88.24
2018-12-05T03:19:41.991Z,88.43
2018-12-05T03:20:08.099Z,88.91
2018-12-05T03:20:34.198Z,88.81
2018-12-05T03:21:00.308Z,88.81
2018-12-05T03:21:26.409Z,89.1
2018-12-05T03:21:52.545Z,88.77
2018-12-05T03:22:18.676Z,89.25
2018-12-05T03:22:44.781Z,89.15
2018-12-05T03:23:10.940Z,89.06
2018-12-05T03:23:37.101Z,88.96
2018-12-05T03:24:03.204Z,89.53
2018-12-05T03:24:29.308Z,89.53
2018-12-05T03:24:55.470Z,89.62
2018-12-05T03:25:21.592Z,89.72
2018-12-05T03:25:47.733Z,90
2018-12-05T03:26:13.869Z,89.81
2018-12-05T03:26:40.006Z,90.1
2018-12-05T03:27:06.170Z,90.48
2018-12-05T03:27:32.269Z,90.19
2018-12-05T03:27:58.405Z,90.29
2018-12-05T03:28:24.501Z,90.76
2018-12-05T03:28:50.606Z,90.57
2018-12-05T03:29:16.742Z,90.67
2018-12-05T03:29:42.840Z,90.95
2018-12-05T03:30:08.992Z,91.24
2018-12-05T03:30:35.170Z,90.86
2018-12-05T03:31:01.333Z,91.24
2018-12-05T03:31:27.464Z,91.24
2018-12-05T03:31:53.638Z,91.42
2018-12-05T03:32:19.807Z,91.52
2018-12-05T03:32:46.000Z,91.99
2018-12-05T03:33:12.166Z,91.99
2018-12-05T03:33:38.322Z,92.18
2018-12-05T03:34:04.455Z,92.09
2018-12-05T03:34:30.567Z,92.57
2018-12-05T03:34:56.694Z,92.47
2018-12-05T03:35:22.863Z,91.9
2018-12-05T03:35:48.969Z,92.66
2018-12-05T03:36:15.104Z,92.85
2018-12-05T03:36:41.247Z,92.85
2018-12-05T03:37:07.372Z,92.57
2018-12-05T03:37:33.544Z,92.57
2018-12-05T03:37:59.651Z,92.47
2018-12-05T03:38:25.763Z,92.57
2018-12-05T03:38:51.863Z,92.28
2018-12-05T03:39:17.973Z,92.94
2018-12-05T03:39:44.082Z,93.04
2018-12-05T03:40:10.241Z,92.94
2018-12-05T03:40:36.338Z,92.85
2018-12-05T03:41:02.442Z,93.23
2018-12-05T03:41:28.581Z,93.32
2018-12-05T03:41:54.682Z,93.32
2018-12-05T03:42:20.815Z,92.76
2018-12-05T03:42:46.916Z,93.04
2018-12-05T03:43:13.023Z,92.85
2018-12-05T03:43:39.152Z,93.13
2018-12-05T03:44:05.280Z,92.94
2018-12-05T03:44:31.413Z,93.04
2018-12-05T03:44:57.580Z,92.85
2018-12-05T03:45:23.734Z,92.94
2018-12-05T03:45:49.842Z,93.23
2018-12-05T03:46:15.946Z,93.23
2018-12-05T03:46:42.080Z,93.23
2018-12-05T03:47:08.208Z,93.04
2018-12-05T03:47:34.352Z,92.76
2018-12-05T03:48:00.455Z,92.85
2018-12-05T03:48:26.592Z,93.23
2018-12-05T03:48:52.693Z,93.32
2018-12-05T03:49:18.792Z,93.23
2018-12-05T03:49:44.897Z,92.66
2018-12-05T03:50:11.005Z,92.85
2018-12-05T03:50:37.138Z,92.94
2018-12-05T03:51:03.280Z,92.85
2018-12-05T03:51:29.386Z,92.38
2018-12-05T03:51:55.495Z,92.57
2018-12-05T03:52:21.605Z,92.94
2018-12-05T03:52:47.765Z,92.85
2018-12-05T03:53:13.896Z,92.66
2018-12-05T03:53:39.996Z,92.76
2018-12-05T03:54:06.101Z,92.66
2018-12-05T03:54:32.228Z,91.99
2018-12-05T03:54:58.362Z,92.28
2018-12-05T03:55:25.423Z,91.99
2018-12-05T03:55:51.533Z,91.9
2018-12-05T03:56:17.629Z,92.09
2018-12-05T03:56:43.768Z,91.8
2018-12-05T03:57:09.894Z,91.9
2018-12-05T03:57:36.036Z,92.18
2018-12-05T03:58:02.132Z,91.9
2018-12-05T03:58:28.267Z,91.52
2018-12-05T03:58:54.372Z,91.9
2018-12-05T03:59:20.481Z,91.8
2018-12-05T03:59:46.579Z,91.52
2018-12-05T04:00:12.718Z,91.56
2018-12-05T04:00:38.849Z,91.33
2018-12-05T04:01:04.953Z,91.33
2018-12-05T04:01:31.053Z,91.05
2018-12-05T04:01:57.165Z,91.24
2018-12-05T04:02:23.267Z,91.52
2018-12-05T04:02:49.401Z,91.61
2018-12-05T04:03:15.503Z,90.95
2018-12-05T04:03:41.604Z,91.24
2018-12-05T04:04:07.703Z,90.57
2018-12-05T04:04:33.847Z,90.57
2018-12-05T04:04:59.976Z,91.14
2018-12-05T04:05:26.076Z,91.24
2018-12-05T04:05:52.214Z,90.67
2018-12-05T04:06:18.318Z,90.95
2018-12-05T04:06:44.420Z,91.05
2018-12-05T04:07:10.529Z,91.42
2018-12-05T04:07:36.632Z,91.61
2018-12-05T04:08:02.740Z,91.71
2018-12-05T04:08:28.845Z,91.24
2018-12-05T04:08:54.952Z,91.61
2018-12-05T04:09:21.057Z,91.61
2018-12-05T04:09:47.191Z,91.71
2018-12-05T04:10:13.317Z,91.24
2018-12-05T04:10:39.424Z,91.24
2018-12-05T04:11:05.524Z,90.86
2018-12-05T04:11:31.662Z,90.9
2018-12-05T04:11:57.792Z,90.95
2018-12-05T04:12:23.956Z,90.76
2018-12-05T04:12:51.407Z,90.38
2018-12-05T04:13:17.523Z,90.76
2018-12-05T04:13:43.653Z,90.57
2018-12-05T04:14:09.787Z,90.76
2018-12-05T04:14:35.887Z,90.67
2018-12-05T04:15:01.989Z,90.38
2018-12-05T04:15:28.118Z,90.76
2018-12-05T04:15:54.220Z,90.76
2018-12-05T04:16:20.353Z,90.29
2018-12-05T04:16:46.493Z,90.24
2018-12-05T04:17:12.597Z,90.33
2018-12-05T04:17:38.704Z,90.19
2018-12-05T04:18:04.834Z,90.24
2018-12-05T04:18:30.951Z,90.1
2018-12-05T04:18:57.045Z,90.19
2018-12-05T04:19:23.149Z,90.38
2018-12-05T04:19:49.248Z,90.19
2018-12-05T04:20:15.349Z,90.19
2018-12-05T04:20:41.457Z,90.1
2018-12-05T04:21:07.555Z,90.1
2018-12-05T04:21:33.686Z,90.43
2018-12-05T04:21:59.813Z,90.48
2018-12-05T04:22:25.934Z,90.43
2018-12-05T04:22:52.039Z,90.29
2018-12-05T04:23:18.153Z,90.14
2018-12-05T04:23:45.253Z,90.33
2018-12-05T04:24:11.361Z,90.19
2018-12-05T04:24:37.470Z,90.48
2018-12-05T04:25:03.593Z,90.19
2018-12-05T04:25:29.727Z,89.81
2018-12-05T04:25:55.830Z,89.72
2018-12-05T04:26:21.969Z,89.76
2018-12-05T04:26:48.070Z,89.91
2018-12-05T04:27:14.170Z,89.95
2018-12-05T04:27:40.279Z,90
2018-12-05T04:28:06.427Z,89.91
2018-12-05T04:28:32.559Z,90.1
2018-12-05T04:28:58.678Z,89.76
2018-12-05T04:29:24.768Z,89.43
2018-12-05T04:29:50.878Z,89.72
2018-12-05T04:30:16.979Z,89.72
2018-12-05T04:30:43.108Z,89.62
2018-12-05T04:31:09.216Z,89.53
2018-12-05T04:31:35.322Z,89.72
2018-12-05T04:32:01.452Z,89.53
2018-12-05T04:32:27.614Z,89.62
2018-12-05T04:32:53.715Z,89.72
2018-12-05T04:33:19.847Z,90.14
2018-12-05T04:33:45.953Z,90
2018-12-05T04:34:12.057Z,89.91
2018-12-05T04:34:38.161Z,89.72
2018-12-05T04:35:04.295Z,89.91
2018-12-05T04:35:30.399Z,90.1
2018-12-05T04:35:56.504Z,89.72
2018-12-05T04:36:22.637Z,89.81
2018-12-05T04:36:48.739Z,90.1
2018-12-05T04:37:14.850Z,89.81
2018-12-05T04:37:40.976Z,90.1
2018-12-05T04:38:08.067Z,90.38
2018-12-05T04:38:34.162Z,90.48
2018-12-05T04:39:00.297Z,90.38
2018-12-05T04:39:26.526Z,90.38
2018-12-05T04:39:52.580Z,90.1
2018-12-05T04:40:18.687Z,90.29
2018-12-05T04:40:44.784Z,90.38
2018-12-05T04:41:10.888Z,90.67
2018-12-05T04:41:37.046Z,90.57
2018-12-05T04:42:03.150Z,90.67
2018-12-05T04:42:29.249Z,90.38
2018-12-05T04:42:55.351Z,90.1
2018-12-05T04:43:21.480Z,90.19
2018-12-05T04:43:47.633Z,90.1
2018-12-05T04:44:13.802Z,90.86
2018-12-05T04:44:39.908Z,90.67
2018-12-05T04:45:06.008Z,90.76
2018-12-05T04:45:32.115Z,90.86
2018-12-05T04:45:58.247Z,91.14
2018-12-05T04:46:24.440Z,90.86
2018-12-05T04:46:50.540Z,90.86
2018-12-05T04:47:16.647Z,90.48
2018-12-05T04:47:42.782Z,91.05
2018-12-05T04:48:08.902Z,91.24
2018-12-05T04:48:35.010Z,90.86
2018-12-05T04:49:01.137Z,90.86
2018-12-05T04:49:27.242Z,90.57
2018-12-05T04:49:53.368Z,90.95
2018-12-05T04:50:19.476Z,90.95
2018-12-05T04:50:45.585Z,91.05
2018-12-05T04:51:11.688Z,91.05
2018-12-05T04:51:37.802Z,91.05
2018-12-05T04:52:03.903Z,91.05
2018-12-05T04:52:30.002Z,90.95
2018-12-05T04:52:56.112Z,91.05
2018-12-05T04:53:22.250Z,91.05
2018-12-05T04:53:48.354Z,90.48
2018-12-05T04:54:14.492Z,90.48
2018-12-05T04:54:40.593Z,90.67
2018-12-05T04:55:06.710Z,90.19
2018-12-05T04:55:32.804Z,90.19
2018-12-05T04:55:58.943Z,90.67
2018-12-05T04:56:25.068Z,90.29
2018-12-05T04:56:51.178Z,90.67
2018-12-05T04:57:17.273Z,90.19
2018-12-05T04:57:43.380Z,90.19
2018-12-05T04:58:09.512Z,90.95
2018-12-05T04:58:35.630Z,90.48
2018-12-05T04:59:01.721Z,91.05
2018-12-05T04:59:27.830Z,91.05
2018-12-05T04:59:53.924Z,90.95
2018-12-05T05:00:20.030Z,91.05
2018-12-05T05:00:46.164Z,91.05
2018-12-05T05:01:12.267Z,90.95
2018-12-05T05:01:38.372Z,91.05
2018-12-05T05:02:04.541Z,91.52
2018-12-05T05:02:30.637Z,91.52
2018-12-05T05:02:56.773Z,91.52
2018-12-05T05:03:22.873Z,91.33
2018-12-05T05:03:49.030Z,91.33
2018-12-05T05:04:15.131Z,91.71
2018-12-05T05:04:41.237Z,91.8
2018-12-05T05:05:07.371Z,91.9
2018-12-05T05:05:33.464Z,91.61
2018-12-05T05:05:59.626Z,91.9
2018-12-05T05:06:25.734Z,91.52
2018-12-05T05:06:52.837Z,91.42
2018-12-05T05:07:18.933Z,91.42
2018-12-05T05:07:45.036Z,91.33
2018-12-05T05:08:11.161Z,91.42
2018-12-05T05:08:37.269Z,91.52
2018-12-05T05:09:03.374Z,91.8
2018-12-05T05:09:29.503Z,91.14
2018-12-05T05:09:55.669Z,91.24
2018-12-05T05:10:21.769Z,91.24
2018-12-05T05:10:47.899Z,91.24
2018-12-05T05:11:14.001Z,91.05
2018-12-05T05:11:40.103Z,91.14
2018-12-05T05:12:06.213Z,91.8
2018-12-05T05:12:32.342Z,91.05
2018-12-05T05:12:58.443Z,91.05
2018-12-05T05:13:24.599Z,90.86
2018-12-05T05:13:50.735Z,91.14
2018-12-05T05:14:16.872Z,90.86
2018-12-05T05:14:43.004Z,90.57
2018-12-05T05:15:09.116Z,90.67
2018-12-05T05:15:35.220Z,90.38
2018-12-05T05:16:01.363Z,90.38
2018-12-05T05:16:27.460Z,90.48
2018-12-05T05:16:53.572Z,90.67
2018-12-05T05:17:19.669Z,90.81
2018-12-05T05:17:45.770Z,90.67
2018-12-05T05:18:11.879Z,91.05
2018-12-05T05:18:37.980Z,91.71
2018-12-05T05:19:04.083Z,91.42
2018-12-05T05:19:30.183Z,91.33
2018-12-05T05:19:56.321Z,91.24
2018-12-05T05:20:22.464Z,90.91
2018-12-05T05:20:48.576Z,91.9
2018-12-05T05:21:14.684Z,91.66
2018-12-05T05:21:40.825Z,92.18
2018-12-05T05:22:06.932Z,91.99
2018-12-05T05:22:33.036Z,91.85
2018-12-05T05:22:59.139Z,92.28
2018-12-05T05:23:25.244Z,92.28
2018-12-05T05:23:51.375Z,92.47
2018-12-05T05:24:17.504Z,92.28
2018-12-05T05:24:43.644Z,92.38
2018-12-05T05:25:09.739Z,92.09
2018-12-05T05:25:36.838Z,91.9
2018-12-05T05:26:02.942Z,91.9
2018-12-05T05:26:29.075Z,91.99
2018-12-05T05:26:55.208Z,92.09
2018-12-05T05:27:21.313Z,91.9
2018-12-05T05:27:48.406Z,91.71
2018-12-05T05:28:14.538Z,91.8
2018-12-05T05:28:40.642Z,91.99
2018-12-05T05:29:06.743Z,92.18
2018-12-05T05:29:32.862Z,91.8
2018-12-05T05:29:58.959Z,91.9
2018-12-05T05:30:25.067Z,91.99
2018-12-05T05:30:51.170Z,92.18
2018-12-05T05:31:17.281Z,91.99
2018-12-05T05:31:44.371Z,92.09
2018-12-05T05:32:10.498Z,91.8
2018-12-05T05:32:36.612Z,91.52
2018-12-05T05:33:02.717Z,91.52
2018-12-05T05:33:28.920Z,91.24
2018-12-05T05:33:54.973Z,91.42
2018-12-05T05:34:21.070Z,91.33
2018-12-05T05:34:47.181Z,91.52
2018-12-05T05:35:13.372Z,91.05
2018-12-05T05:35:39.475Z,91.61
2018-12-05T05:36:05.585Z,91.52
2018-12-05T05:36:31.720Z,91.61
2018-12-05T05:36:57.824Z,91.28
2018-12-05T05:37:23.926Z,91.14
2018-12-05T05:37:50.041Z,91.57